Brownsville, Illinois
Current Conditions -  °F | °C
As of 3:15 PM on Saturday 22 Nov 2014 (Local Time) from KCUL Reporting Station
Overcast Overcast  
Wind Chill: 64°   Ceiling: 6500
Heat Index: 64°   Visibility: 10mi
Dew Point: 46°   Wind: 13mph
Humidity: 52%   Direction: 180°S
Pressure: 30.05"   Gusts: NA
Location:  38.0491°N, 88.1124°W
Report Text: KCUL 222115Z AUTO 18011KT 10SM OVC065 18/08 A3005 RMK AO2 T01760076
Loading
Personal Weather Stations






























Interactive Weather Map New forecast layout! Learn more

10-Day Weather Forecast

Advertisements
Track Severe Weather on mobile